KFKN

Details ICAO KFKN
Name FRANKLIN MUNI JOHN BEVERLY ROSE
Region United States
Timezone America/New_York (UTC-5.0)
Plans Departing 4
Arriving 0
Stats Elevation 41 ft / 12 m (AMSL)
Location 36.697850° -76.903979°
Runways 2
Magnetic Variation 10.468° W
Sunrise 2017-12-12 12:12:17 UTC / 2017-12-12 07:12:17 Local
Sunset 2017-12-12 21:53:28 UTC / 2017-12-12 16:53:28 Local
Advertisement - Login to hide

Runways

ID Width Length Bearing (true) Bearing (mag) Surface Threshold Offset Overrun Length
09 100 ft / 30 m 4,967 ft / 1,514 m 80.95° 91.42° Asphalt 0 ft / 0 m 0 ft / 0 m
14 100 ft / 30 m 4,099 ft / 1,249 m 138.25° 148.72° Concrete 0 ft / 0 m 0 ft / 0 m
27 100 ft / 30 m 4,967 ft / 1,514 m 260.96° 271.43° Asphalt 0 ft / 0 m 0 ft / 0 m
32 100 ft / 30 m 4,099 ft / 1,249 m 318.26° 328.73° Concrete 0 ft / 0 m 0 ft / 0 m

Map

Weather


0- 5 10 15 20 25 30 35+ Temperature / ° C

Clouds and Precipitation
Forecast for 2017-12-12 12:00 UTC. Updated 2 hours ago

Ground ~20,000 ft ~40,000 ft Winds

METAR

KFKN 120835Z AUTO 17007KT 10SM CLR 02/M01 A2981 RMK AO2 T00191008

TAF

Not found

Frequencies

Recorded 124.67 MHz AWOS 3
Approach 127.90 MHz NORFOLK APP/DEP
Unicom 122.80 MHz CTAF/UNICOM
Warning: Do not use this data for real-world aviation or navigation. No guarantee of current accuracy is given.